createdAt,value
2018-09-14T00:00:37.774Z,17.80
2018-09-14T00:03:07.425Z,17.70
2018-09-14T00:05:36.277Z,17.70
2018-09-14T00:08:05.325Z,17.70
2018-09-14T00:10:33.737Z,17.70
2018-09-14T00:13:02.013Z,17.70
2018-09-14T00:15:30.277Z,17.70
2018-09-14T00:17:58.961Z,17.70
2018-09-14T00:20:27.932Z,17.60
2018-09-14T00:22:56.193Z,17.70
2018-09-14T00:25:25.069Z,17.70
2018-09-14T00:27:53.301Z,17.70
2018-09-14T00:30:21.602Z,17.60
2018-09-14T00:32:50.382Z,17.60
2018-09-14T00:35:18.663Z,17.50
2018-09-14T00:37:53.102Z,17.60
2018-09-14T00:40:21.747Z,17.50
2018-09-14T00:42:50.018Z,17.40
2018-09-14T00:45:18.586Z,17.40
2018-09-14T00:47:46.862Z,17.40
2018-09-14T00:50:15.128Z,17.30
2018-09-14T00:52:43.717Z,17.30
2018-09-14T00:55:12.511Z,17.30
2018-09-14T00:57:44.046Z,17.30
2018-09-14T01:00:12.286Z,17.30
2018-09-14T01:02:40.542Z,17.30
2018-09-14T01:05:09.333Z,17.30
2018-09-14T01:07:37.581Z,17.30
2018-09-14T01:10:06.348Z,17.20
2018-09-14T01:12:34.917Z,17.20
2018-09-14T01:15:03.198Z,17.20
2018-09-14T01:17:31.525Z,17.20
2018-09-14T01:20:00.099Z,17.20
2018-09-14T01:22:28.848Z,17.10
2018-09-14T01:24:57.114Z,17.10
2018-09-14T01:27:25.987Z,17.10
2018-09-14T01:29:54.256Z,17.10
2018-09-14T01:32:22.508Z,17.00
2018-09-14T01:34:50.842Z,17.00
2018-09-14T01:37:19.246Z,17.00
2018-09-14T01:39:47.956Z,17.00
2018-09-14T01:42:16.872Z,17.00
2018-09-14T01:44:45.127Z,17.00
2018-09-14T01:47:13.361Z,16.90
2018-09-14T01:49:42.126Z,16.90
2018-09-14T01:52:11.021Z,16.90
2018-09-14T01:54:39.278Z,16.90
2018-09-14T01:57:07.998Z,16.90
2018-09-14T01:59:36.989Z,16.90
2018-09-14T02:02:05.379Z,16.90
2018-09-14T02:04:33.817Z,16.90
2018-09-14T02:07:02.073Z,16.80
2018-09-14T02:09:30.378Z,16.80
2018-09-14T02:11:58.663Z,16.80
2018-09-14T02:14:26.914Z,16.80
2018-09-14T02:16:55.245Z,16.80
2018-09-14T02:19:23.512Z,16.80
2018-09-14T02:21:52.526Z,16.80
2018-09-14T02:24:21.059Z,16.80
2018-09-14T02:26:49.802Z,16.80
2018-09-14T02:29:18.774Z,16.70
2018-09-14T02:31:47.021Z,16.70
2018-09-14T02:34:15.822Z,16.70
2018-09-14T02:36:51.778Z,16.70
2018-09-14T02:39:20.798Z,16.70
2018-09-14T02:41:49.407Z,16.70
2018-09-14T02:44:18.330Z,16.70
2018-09-14T02:46:47.234Z,16.70
2018-09-14T02:49:16.371Z,16.70
2018-09-14T02:51:53.573Z,16.80
2018-09-14T02:54:22.361Z,16.80
2018-09-14T02:57:01.355Z,16.70
2018-09-14T02:59:30.645Z,16.70
2018-09-14T03:04:25.216Z,16.70
2018-09-14T03:06:53.703Z,16.60
2018-09-14T03:09:22.716Z,16.60
2018-09-14T03:11:51.430Z,16.70
2018-09-14T03:14:19.744Z,16.60
2018-09-14T03:16:47.993Z,16.70
2018-09-14T03:19:17.126Z,16.70
2018-09-14T03:21:45.400Z,16.70
2018-09-14T03:24:13.666Z,16.60
2018-09-14T03:26:42.301Z,16.60
2018-09-14T03:29:11.346Z,16.70
2018-09-14T03:31:39.608Z,16.60
2018-09-14T03:34:07.854Z,16.70
2018-09-14T03:36:36.167Z,16.60
2018-09-14T03:39:07.128Z,16.60
2018-09-14T03:41:35.915Z,16.60
2018-09-14T03:44:04.241Z,16.50
2018-09-14T03:46:32.618Z,16.50
2018-09-14T03:49:01.514Z,16.70
2018-09-14T03:51:30.597Z,16.70
2018-09-14T03:53:59.332Z,16.70
2018-09-14T03:56:27.969Z,16.60
2018-09-14T03:58:57.232Z,16.70
2018-09-14T04:01:25.938Z,16.70
2018-09-14T04:06:29.221Z,16.60
2018-09-14T04:08:57.915Z,16.60
2018-09-14T04:11:26.764Z,16.60
2018-09-14T04:13:57.516Z,16.70
2018-09-14T04:16:26.414Z,16.60
2018-09-14T04:18:59.873Z,16.60
2018-09-14T04:21:34.235Z,16.60
2018-09-14T04:24:03.308Z,16.60
2018-09-14T04:26:32.285Z,16.50
2018-09-14T04:29:01.694Z,16.50
2018-09-14T04:31:36.729Z,16.40
2018-09-14T04:34:05.449Z,16.50
2018-09-14T04:36:39.523Z,16.50
2018-09-14T04:39:11.526Z,16.50
2018-09-14T04:41:40.305Z,16.50
2018-09-14T04:44:09.206Z,16.60
2018-09-14T04:46:38.010Z,16.50
2018-09-14T04:49:07.153Z,16.50
2018-09-14T04:51:36.254Z,16.60
2018-09-14T04:54:05.176Z,16.50
2018-09-14T04:56:33.476Z,16.50
2018-09-14T04:59:01.757Z,16.50
2018-09-14T05:01:30.074Z,16.50
2018-09-14T05:04:04.434Z,16.40
2018-09-14T05:06:32.726Z,16.40
2018-09-14T05:09:01.047Z,16.30
2018-09-14T05:11:29.871Z,16.40
2018-09-14T05:13:58.190Z,16.40
2018-09-14T05:16:34.136Z,16.40
2018-09-14T05:19:02.514Z,16.40
2018-09-14T05:21:31.117Z,16.40
2018-09-14T05:23:59.390Z,16.40
2018-09-14T05:26:28.664Z,16.40
2018-09-14T05:28:57.009Z,16.50
2018-09-14T05:34:04.654Z,16.50
2018-09-14T05:36:33.126Z,16.50
2018-09-14T05:39:02.175Z,16.50
2018-09-14T05:41:30.825Z,16.50
2018-09-14T05:43:59.090Z,16.50
2018-09-14T05:46:27.414Z,16.60
2018-09-14T05:48:55.660Z,16.60
2018-09-14T05:51:24.434Z,16.70
2018-09-14T05:53:53.809Z,16.60
2018-09-14T05:56:22.260Z,16.70
2018-09-14T05:58:50.550Z,16.70
2018-09-14T06:01:18.913Z,16.70
2018-09-14T06:03:47.416Z,16.70
2018-09-14T06:06:16.129Z,16.70
2018-09-14T06:08:44.508Z,16.70
2018-09-14T06:11:13.084Z,16.70
2018-09-14T06:13:41.334Z,16.70
2018-09-14T06:16:09.636Z,16.70
2018-09-14T06:18:38.512Z,16.80
2018-09-14T06:21:07.069Z,16.80
2018-09-14T06:23:35.337Z,16.80
2018-09-14T06:26:04.234Z,16.70
2018-09-14T06:28:33.310Z,16.70
2018-09-14T06:31:05.729Z,16.80
2018-09-14T06:33:34.433Z,16.80
2018-09-14T06:36:02.708Z,16.80
2018-09-14T06:38:31.463Z,16.90
2018-09-14T06:41:00.421Z,16.90
2018-09-14T06:43:28.699Z,16.90
2018-09-14T06:45:57.798Z,16.90
2018-09-14T06:48:26.270Z,16.90
2018-09-14T06:53:29.878Z,16.80
2018-09-14T06:55:58.155Z,16.90
2018-09-14T06:58:26.685Z,17.00
2018-09-14T07:01:01.950Z,17.00
2018-09-14T07:03:30.502Z,17.00
2018-09-14T07:05:58.991Z,17.00
2018-09-14T07:08:27.552Z,17.10
2018-09-14T07:10:55.862Z,17.20
2018-09-14T07:13:24.114Z,17.30
2018-09-14T07:15:52.393Z,17.40
2018-09-14T07:18:20.706Z,17.40
2018-09-14T07:20:49.066Z,17.50
2018-09-14T07:23:17.358Z,17.40
2018-09-14T07:25:45.741Z,17.50
2018-09-14T07:28:14.312Z,17.50
2018-09-14T07:30:43.183Z,17.50
2018-09-14T07:35:40.821Z,17.50
2018-09-14T07:38:09.978Z,17.40
2018-09-14T07:40:38.463Z,17.40
2018-09-14T07:43:06.730Z,17.30
2018-09-14T07:45:34.980Z,17.40
2018-09-14T07:48:03.574Z,17.30
2018-09-14T07:50:32.590Z,17.40
2018-09-14T07:53:01.427Z,17.30
2018-09-14T07:55:29.876Z,17.20
2018-09-14T07:57:58.090Z,17.40
2018-09-14T08:00:26.917Z,17.50
2018-09-14T08:02:55.169Z,17.50
2018-09-14T08:05:23.659Z,17.80
2018-09-14T08:07:51.939Z,17.80
2018-09-14T08:10:20.234Z,18.10
2018-09-14T08:12:48.804Z,18.30
2018-09-14T08:15:17.103Z,18.50
2018-09-14T08:17:47.558Z,18.40
2018-09-14T08:20:21.634Z,18.60
2018-09-14T08:22:52.169Z,18.60
2018-09-14T08:25:20.866Z,18.70
2018-09-14T08:27:49.406Z,18.60
2018-09-14T08:30:17.680Z,18.80
2018-09-14T08:32:45.958Z,18.80
2018-09-14T08:35:14.442Z,18.80
2018-09-14T08:37:42.741Z,18.90
2018-09-14T08:40:11.613Z,19.00
2018-09-14T08:42:40.265Z,19.10
2018-09-14T08:45:08.527Z,19.20
2018-09-14T08:47:36.838Z,19.40
2018-09-14T08:50:05.494Z,19.70
2018-09-14T08:52:34.189Z,19.50
2018-09-14T08:55:02.475Z,19.60
2018-09-14T08:57:33.771Z,19.40
2018-09-14T09:00:08.198Z,19.40
2018-09-14T09:02:36.450Z,19.40
2018-09-14T09:05:04.789Z,19.30
2018-09-14T09:10:17.794Z,19.20
2018-09-14T09:12:46.078Z,19.30
2018-09-14T09:15:14.383Z,19.20
2018-09-14T09:17:42.691Z,19.00
2018-09-14T09:20:11.222Z,18.90
2018-09-14T09:22:39.497Z,18.80
2018-09-14T09:25:07.786Z,18.70
2018-09-14T09:27:36.447Z,18.60
2018-09-14T09:30:04.838Z,18.50
2018-09-14T09:32:33.082Z,18.30
2018-09-14T09:35:01.374Z,18.40
2018-09-14T09:37:36.954Z,18.30
2018-09-14T09:40:05.774Z,18.20
2018-09-14T09:42:34.467Z,18.10
2018-09-14T09:45:03.907Z,18.40
2018-09-14T09:47:32.226Z,18.30
2018-09-14T09:50:00.476Z,18.30
2018-09-14T09:52:29.213Z,18.40
2018-09-14T09:54:57.450Z,18.50
2018-09-14T09:57:25.719Z,18.50
2018-09-14T09:59:54.635Z,18.50
2018-09-14T10:02:29.378Z,18.50
2018-09-14T10:05:03.260Z,18.40
2018-09-14T10:07:31.529Z,18.40
2018-09-14T10:10:00.246Z,18.50
2018-09-14T10:12:28.511Z,18.60
2018-09-14T10:14:56.838Z,18.60
2018-09-14T10:17:25.917Z,18.80
2018-09-14T10:19:54.194Z,18.80
2018-09-14T10:22:22.465Z,18.80
2018-09-14T10:24:51.002Z,18.80
2018-09-14T10:27:19.952Z,18.80
2018-09-14T10:29:48.590Z,18.80
2018-09-14T10:32:16.850Z,18.90
2018-09-14T10:34:45.115Z,19.00
2018-09-14T10:37:13.382Z,18.90
2018-09-14T10:39:41.990Z,19.10
2018-09-14T10:42:10.978Z,19.00
2018-09-14T10:44:39.241Z,18.90
2018-09-14T10:47:07.557Z,19.00
2018-09-14T10:49:35.825Z,19.00
2018-09-14T10:52:04.521Z,19.30
2018-09-14T10:54:33.154Z,20.10
2018-09-14T10:57:02.082Z,20.30
2018-09-14T10:59:30.342Z,20.80
2018-09-14T11:01:58.605Z,21.40
2018-09-14T11:04:26.897Z,22.40
2018-09-14T11:06:55.204Z,22.60
2018-09-14T11:09:23.694Z,22.90
2018-09-14T11:11:51.946Z,22.50
2018-09-14T11:16:59.399Z,22.60
2018-09-14T11:19:27.675Z,21.90
2018-09-14T11:21:55.933Z,21.30
2018-09-14T11:24:24.213Z,21.20
2018-09-14T11:26:53.166Z,21.00
2018-09-14T11:29:21.425Z,21.00
2018-09-14T11:31:50.353Z,21.40
2018-09-14T11:34:18.610Z,21.60
2018-09-14T11:36:48.367Z,21.90
2018-09-14T11:39:16.976Z,22.30
2018-09-14T11:41:45.208Z,22.20
2018-09-14T11:44:14.021Z,22.20
2018-09-14T11:46:42.274Z,22.50
2018-09-14T11:49:10.545Z,22.50
2018-09-14T11:54:14.348Z,21.70
2018-09-14T11:56:42.535Z,21.50
2018-09-14T11:59:10.830Z,21.60
2018-09-14T12:01:39.464Z,21.70
2018-09-14T12:04:08.044Z,21.70
2018-09-14T12:06:36.360Z,21.60
2018-09-14T12:09:07.018Z,21.90
2018-09-14T12:11:35.322Z,21.90
2018-09-14T12:14:04.471Z,21.80
2018-09-14T12:19:13.348Z,21.40
2018-09-14T12:21:41.598Z,21.10
2018-09-14T12:24:09.873Z,21.00
2018-09-14T12:26:38.594Z,20.90
2018-09-14T12:31:41.598Z,20.80
2018-09-14T12:34:10.019Z,20.70
2018-09-14T12:36:38.282Z,20.80
2018-09-14T12:39:08.344Z,20.60
2018-09-14T12:41:36.961Z,20.70
2018-09-14T12:44:05.238Z,21.00
2018-09-14T12:46:33.711Z,21.00
2018-09-14T12:49:02.053Z,21.30
2018-09-14T12:51:31.157Z,21.30
2018-09-14T12:54:00.027Z,21.70
2018-09-14T12:56:29.406Z,21.80
2018-09-14T12:58:58.269Z,21.90
2018-09-14T13:01:26.533Z,21.90
2018-09-14T13:03:55.616Z,21.90
2018-09-14T13:06:23.905Z,22.20
2018-09-14T13:08:52.190Z,22.10
2018-09-14T13:11:20.560Z,22.20
2018-09-14T13:13:48.845Z,22.60
2018-09-14T13:16:17.198Z,22.70
2018-09-14T13:18:45.450Z,22.60
2018-09-14T13:21:14.197Z,22.50
2018-09-14T13:23:44.069Z,22.40
2018-09-14T13:28:47.162Z,22.00
2018-09-14T13:31:16.281Z,21.70
2018-09-14T13:33:44.619Z,21.60
2018-09-14T13:36:13.279Z,21.40
2018-09-14T13:38:44.816Z,21.30
2018-09-14T13:41:13.724Z,21.30
2018-09-14T13:43:42.012Z,21.30
2018-09-14T13:46:10.541Z,21.20
2018-09-14T13:48:39.547Z,21.20
2018-09-14T13:51:08.276Z,21.10
2018-09-14T13:53:36.909Z,21.00
2018-09-14T13:56:05.254Z,21.00
2018-09-14T13:58:33.862Z,21.10
2018-09-14T14:01:02.149Z,21.60
2018-09-14T14:03:30.432Z,21.90
2018-09-14T14:05:58.749Z,21.90
2018-09-14T14:08:26.986Z,21.80
2018-09-14T14:10:55.365Z,21.70
2018-09-14T14:13:24.375Z,21.60
2018-09-14T14:15:52.670Z,21.30
2018-09-14T14:18:21.013Z,21.20
2018-09-14T14:20:49.594Z,21.10
2018-09-14T14:23:18.411Z,21.10
2018-09-14T14:25:46.696Z,21.10
2018-09-14T14:28:15.982Z,21.10
2018-09-14T14:30:45.014Z,21.00
2018-09-14T14:33:13.338Z,21.00
2018-09-14T14:35:42.046Z,21.00
2018-09-14T14:38:10.624Z,21.00
2018-09-14T14:40:39.301Z,21.00
2018-09-14T14:43:07.585Z,20.60
2018-09-14T14:45:35.958Z,20.80
2018-09-14T14:48:04.245Z,20.90
2018-09-14T14:50:32.567Z,20.90
2018-09-14T14:53:01.493Z,21.00
2018-09-14T14:55:29.771Z,21.00
2018-09-14T14:57:58.663Z,21.20
2018-09-14T15:00:27.014Z,21.20
2018-09-14T15:02:55.293Z,21.20
2018-09-14T15:05:23.918Z,21.10
2018-09-14T15:07:52.176Z,21.00
2018-09-14T15:10:20.490Z,20.80
2018-09-14T15:12:49.050Z,20.70
2018-09-14T15:15:17.310Z,20.70
2018-09-14T15:17:45.568Z,20.70
2018-09-14T15:20:13.846Z,20.60
2018-09-14T15:22:42.101Z,20.60
2018-09-14T15:25:18.270Z,20.50
2018-09-14T15:27:47.418Z,20.40
2018-09-14T15:30:15.918Z,20.30
2018-09-14T15:32:44.202Z,20.30
2018-09-14T15:35:13.245Z,20.30
2018-09-14T15:37:41.494Z,20.30
2018-09-14T15:40:09.965Z,20.30
2018-09-14T15:42:38.582Z,20.20
2018-09-14T15:45:06.919Z,20.10
2018-09-14T15:47:35.207Z,20.00
2018-09-14T15:50:03.484Z,20.00
2018-09-14T15:52:32.833Z,20.00
2018-09-14T15:55:01.638Z,19.90
2018-09-14T15:57:29.958Z,19.90
2018-09-14T15:59:58.737Z,19.80
2018-09-14T16:02:27.018Z,19.80
2018-09-14T16:04:55.279Z,19.80
2018-09-14T16:07:23.806Z,19.70
2018-09-14T16:09:52.062Z,19.80
2018-09-14T16:12:20.391Z,19.80
2018-09-14T16:14:48.650Z,19.80
2018-09-14T16:17:16.906Z,19.80
2018-09-14T16:19:45.573Z,19.70
2018-09-14T16:22:13.834Z,19.70
2018-09-14T16:24:42.546Z,19.70
2018-09-14T16:27:11.342Z,19.60
2018-09-14T16:29:39.594Z,19.60
2018-09-14T16:32:07.873Z,19.60
2018-09-14T16:34:36.138Z,19.50
2018-09-14T16:37:04.413Z,19.50
2018-09-14T16:39:33.050Z,19.50
2018-09-14T16:42:01.838Z,19.50
2018-09-14T16:44:30.400Z,19.40
2018-09-14T16:46:59.325Z,19.40
2018-09-14T16:49:27.578Z,19.30
2018-09-14T16:51:56.836Z,19.30
2018-09-14T16:54:25.090Z,19.20
2018-09-14T16:56:53.326Z,19.20
2018-09-14T16:59:21.852Z,19.20
2018-09-14T17:01:50.214Z,19.20
2018-09-14T17:04:18.475Z,19.10
2018-09-14T17:06:46.778Z,19.10
2018-09-14T17:09:15.037Z,19.00
2018-09-14T17:11:43.424Z,19.00
2018-09-14T17:14:11.770Z,19.00
2018-09-14T17:16:40.629Z,19.00
2018-09-14T17:19:08.918Z,18.90
2018-09-14T17:21:37.257Z,18.90
2018-09-14T17:24:05.969Z,18.90
2018-09-14T17:26:34.920Z,18.80
2018-09-14T17:29:03.181Z,18.80
2018-09-14T17:31:31.917Z,18.80
2018-09-14T17:34:00.550Z,18.80
2018-09-14T17:36:29.038Z,18.80
2018-09-14T17:38:57.809Z,18.80
2018-09-14T17:41:26.051Z,18.80
2018-09-14T17:43:54.301Z,18.80
2018-09-14T17:46:22.835Z,18.90
2018-09-14T17:48:51.082Z,18.90
2018-09-14T17:51:19.816Z,18.90
2018-09-14T17:53:48.266Z,18.90
2018-09-14T17:56:16.532Z,18.90
2018-09-14T17:58:45.314Z,19.00
2018-09-14T18:03:49.330Z,19.00
2018-09-14T18:06:17.597Z,18.90
2018-09-14T18:08:46.224Z,19.00
2018-09-14T18:11:15.260Z,18.90
2018-09-14T18:13:43.516Z,18.90
2018-09-14T18:16:11.870Z,18.90
2018-09-14T18:18:40.131Z,18.90
2018-09-14T18:21:08.469Z,18.90
2018-09-14T18:23:37.113Z,18.90
2018-09-14T18:26:06.465Z,19.00
2018-09-14T18:28:35.243Z,19.00
2018-09-14T18:31:03.503Z,19.00
2018-09-14T18:33:31.756Z,18.90
2018-09-14T18:36:00.485Z,18.90
2018-09-14T18:38:29.142Z,18.90
2018-09-14T18:40:58.043Z,19.00
2018-09-14T18:43:26.377Z,19.00
2018-09-14T18:45:54.613Z,19.00
2018-09-14T18:48:22.933Z,19.00
2018-09-14T18:50:51.421Z,19.00
2018-09-14T18:53:19.869Z,19.00
2018-09-14T18:55:48.138Z,19.00
2018-09-14T18:58:17.049Z,19.00
2018-09-14T19:00:45.253Z,19.00
2018-09-14T19:03:13.521Z,19.00
2018-09-14T19:05:41.787Z,18.90
2018-09-14T19:08:09.986Z,18.90
2018-09-14T19:10:38.314Z,18.80
2018-09-14T19:13:07.026Z,18.90
2018-09-14T19:15:35.317Z,18.90
2018-09-14T19:20:33.262Z,18.90
2018-09-14T19:23:01.895Z,18.80
2018-09-14T19:25:30.168Z,18.80
2018-09-14T19:27:58.951Z,18.70
2018-09-14T19:30:27.234Z,18.80
2018-09-14T19:32:56.055Z,18.80
2018-09-14T19:35:24.394Z,18.80
2018-09-14T19:38:10.826Z,18.80
2018-09-14T19:40:39.510Z,18.80
2018-09-14T19:43:08.562Z,18.80
2018-09-14T19:45:36.854Z,18.60
2018-09-14T19:48:05.194Z,18.60
2018-09-14T19:50:33.895Z,18.50
2018-09-14T19:53:02.534Z,18.50
2018-09-14T19:55:30.993Z,18.40
2018-09-14T19:58:00.370Z,18.50
2018-09-14T20:00:28.682Z,18.50
2018-09-14T20:02:56.935Z,18.60
2018-09-14T20:05:25.521Z,18.50
2018-09-14T20:07:53.774Z,18.50
2018-09-14T20:10:22.037Z,18.50
2018-09-14T20:12:50.327Z,18.40
2018-09-14T20:15:18.597Z,18.40
2018-09-14T20:17:47.277Z,18.40
2018-09-14T20:20:15.549Z,18.40
2018-09-14T20:22:43.853Z,18.40
2018-09-14T20:25:12.396Z,18.40
2018-09-14T20:27:41.120Z,18.40
2018-09-14T20:30:09.970Z,18.40
2018-09-14T20:32:38.706Z,18.40
2018-09-14T20:35:07.725Z,18.50
2018-09-14T20:37:36.015Z,18.50
2018-09-14T20:40:04.602Z,18.40
2018-09-14T20:42:33.438Z,18.40
2018-09-14T20:45:02.713Z,18.40
2018-09-14T20:47:31.266Z,18.40
2018-09-14T20:50:00.010Z,18.40
2018-09-14T20:52:28.682Z,18.40
2018-09-14T20:54:56.958Z,18.40
2018-09-14T20:57:25.238Z,18.40
2018-09-14T20:59:53.831Z,18.40
2018-09-14T21:02:22.089Z,18.30
2018-09-14T21:04:51.951Z,18.20
2018-09-14T21:07:20.223Z,18.20
2018-09-14T21:09:48.504Z,18.20
2018-09-14T21:12:17.078Z,18.20
2018-09-14T21:14:45.572Z,18.20
2018-09-14T21:17:13.857Z,18.20
2018-09-14T21:19:42.106Z,18.30
2018-09-14T21:22:10.770Z,18.30
2018-09-14T21:24:39.040Z,18.10
2018-09-14T21:27:07.847Z,18.20
2018-09-14T21:29:36.147Z,18.20
2018-09-14T21:34:38.997Z,18.10
2018-09-14T21:37:08.090Z,18.10
2018-09-14T21:39:36.690Z,18.00
2018-09-14T21:42:04.989Z,18.00
2018-09-14T21:44:33.271Z,18.00
2018-09-14T21:47:01.648Z,18.00
2018-09-14T21:49:30.355Z,17.90
2018-09-14T21:51:59.020Z,17.90
2018-09-14T21:54:27.478Z,17.90
2018-09-14T21:56:55.761Z,17.80
2018-09-14T21:59:24.371Z,17.80
2018-09-14T22:01:52.655Z,17.80
2018-09-14T22:04:20.911Z,17.70
2018-09-14T22:06:49.189Z,17.70
2018-09-14T22:09:17.425Z,17.60
2018-09-14T22:11:45.892Z,17.40
2018-09-14T22:14:14.218Z,17.50
2018-09-14T22:16:42.487Z,17.60
2018-09-14T22:19:10.746Z,17.60
2018-09-14T22:21:39.657Z,17.50
2018-09-14T22:24:08.689Z,17.60
2018-09-14T22:26:37.485Z,17.60
2018-09-14T22:29:05.794Z,17.50
2018-09-14T22:31:34.154Z,17.50
2018-09-14T22:34:02.642Z,17.40
2018-09-14T22:36:31.060Z,17.40
2018-09-14T22:38:59.890Z,17.50
2018-09-14T22:41:29.245Z,17.50
2018-09-14T22:43:57.529Z,17.50
2018-09-14T22:46:26.223Z,17.60
2018-09-14T22:48:55.101Z,17.60
2018-09-14T22:51:23.929Z,17.50
2018-09-14T22:53:52.570Z,17.40
2018-09-14T22:56:20.820Z,17.30
2018-09-14T22:58:49.498Z,17.30
2018-09-14T23:01:18.949Z,17.30
2018-09-14T23:03:48.254Z,17.30
2018-09-14T23:06:16.889Z,17.30
2018-09-14T23:08:45.839Z,17.30
2018-09-14T23:11:14.559Z,17.20
2018-09-14T23:13:42.817Z,17.10
2018-09-14T23:16:11.091Z,17.20
2018-09-14T23:18:39.360Z,17.20
2018-09-14T23:21:07.611Z,17.10
2018-09-14T23:23:35.923Z,17.10
2018-09-14T23:26:06.678Z,17.00
2018-09-14T23:28:35.403Z,17.00
2018-09-14T23:31:04.134Z,17.00
2018-09-14T23:33:32.843Z,17.00
2018-09-14T23:36:01.118Z,16.90
2018-09-14T23:38:29.733Z,16.90
2018-09-14T23:40:58.461Z,16.90
2018-09-14T23:43:26.710Z,16.80
2018-09-14T23:45:54.986Z,16.80
2018-09-14T23:48:23.277Z,16.80
2018-09-14T23:50:51.841Z,16.80
2018-09-14T23:53:20.585Z,16.70
2018-09-14T23:55:53.225Z,16.80
2018-09-14T23:58:21.894Z,16.80
